Aeroporto :
LOGIN :

Iscrizione | Disclaimer

   EN    FR    IT 

 










Sommario :    VFR   VFR Marginale   IFR   IFR Intensivo   IFR Molto Intensivo
Visibilità : 
Base nubi : 
>= 8 km
>= 3000ft
5 / 8 km
1000 / 3000 ft
1500m / 5 km
500 / 1000 ft
800 / 1500m
200 / 500 ft
< 800m
< 200 ft
Simboli :   Temporali  Nebbia  Neve Forte  Precipitazioni Forti  Vento > 20 kt
SIGMETs :   Varie  Temporali  Ghiacco  Turbolenza  Onda orograficha  Ceneri Vulcaniche






- Altitudine del aeroporto : 126 ft
- Codice IATA : WIC


EGPC - Wick

ULTIMO METAR :
  • 062050Z AUTO 28005KT 9999 SCT020/// BKN026/// 05/03 Q0996

METARs OBSOLETI :
  • 062020Z AUTO 29008KT 9999 FEW024/// SCT029/// BKN038/// ///// Q////
  • 061950Z 31009KT 9999 VCSH FEW008 05/04 Q0995
  • 061920Z 30007KT 9999 VCSH FEW008 05/04 Q0995
  • 061850Z 33007KT 7000 -SHRA SCT008 SCT015 06/05 Q0995
  • 061820Z 32007KT 9999 SCT008 SCT015 06/05 Q0994

TAF TAF EGPC
Valido dal 06 a 21 ore il 07 a 06 ore UTC


061957Z 0621/0706 34008KT 9999 FEW010 SCT025
PROB40
TEMPO 0621/0706 6000 SHRA BKN010
ATIS : +44 1955 607 596



MetMap, La meteo Aeronautica in un colpo d'occhio ! - Copyright ORBIFLY Dicembre 2007 - Disclaimer

ORBIFLY MET'MAP TEAM :

Programmazione e sviluppo : Alexandra Zaïnal
Concezione : Baudouin d'Aumeries
Aiuto per la programmazione : Marc-Olivier Méhu
Supporto tecnico e logistico : Manuel Goepfert
Aiuto per la traduzione : Arnaldo La Scala

Contatto : metmap@orbifly.com




FONTI E CREDITI :

   NOAA